Roscoe, Minnesota
Current Conditions -  °F | °C
As of 2:54 AM on Wednesday 26 Nov 2014 (Local Time) from KPEX Reporting Station
Overcast Overcast  
Wind Chill: 12°   Ceiling: 1700
Heat Index: 21°   Visibility: 10mi
Dew Point: 17°   Wind: 8mph
Humidity: 82%   Direction: 20°NNE
Pressure: 30.01"   Gusts: NA
Location:  45.43°N, 94.64°W
Report Text: KPEX 260854Z AUTO 02007KT 10SM BKN017 OVC022 M06/M09 A3001 RMK AO2 T10601086
Loading
Personal Weather Stations






























Interactive Weather Map New forecast layout! Learn more

10-Day Weather Forecast

Advertisements
Track Severe Weather on mobile